sensor_id;sensor_type;location;lat;lon;timestamp;P1;durP1;ratioP1;P2;durP2;ratioP2
43552;SDS011;29153;42.696;23.218;2023-04-25T00:00:33;4.03;;;1.70;;
43552;SDS011;29153;42.696;23.218;2023-04-25T00:03:01;3.05;;;1.52;;
43552;SDS011;29153;42.696;23.218;2023-04-25T00:05:30;5.55;;;2.60;;
43552;SDS011;29153;42.696;23.218;2023-04-25T00:07:58;3.60;;;1.77;;
43552;SDS011;29153;42.696;23.218;2023-04-25T00:10:26;6.62;;;2.20;;
43552;SDS011;29153;42.696;23.218;2023-04-25T00:12:53;5.65;;;2.33;;
43552;SDS011;29153;42.696;23.218;2023-04-25T00:15:21;5.78;;;2.42;;
43552;SDS011;29153;42.696;23.218;2023-04-25T00:17:49;5.10;;;2.92;;
43552;SDS011;29153;42.696;23.218;2023-04-25T00:20:18;8.15;;;3.67;;
43552;SDS011;29153;42.696;23.218;2023-04-25T00:22:46;5.47;;;3.52;;
43552;SDS011;29153;42.696;23.218;2023-04-25T00:25:13;4.58;;;2.30;;
43552;SDS011;29153;42.696;23.218;2023-04-25T00:27:41;6.60;;;2.98;;
43552;SDS011;29153;42.696;23.218;2023-04-25T00:30:08;4.40;;;1.85;;
43552;SDS011;29153;42.696;23.218;2023-04-25T00:32:36;2.20;;;1.20;;
43552;SDS011;29153;42.696;23.218;2023-04-25T00:35:04;2.20;;;0.80;;
43552;SDS011;29153;42.696;23.218;2023-04-25T00:37:31;1.52;;;0.57;;
43552;SDS011;29153;42.696;23.218;2023-04-25T00:39:59;1.87;;;0.40;;
43552;SDS011;29153;42.696;23.218;2023-04-25T00:42:27;1.42;;;0.30;;
43552;SDS011;29153;42.696;23.218;2023-04-25T00:47:22;1.15;;;0.40;;
43552;SDS011;29153;42.696;23.218;2023-04-25T00:49:51;2.15;;;0.42;;
43552;SDS011;29153;42.696;23.218;2023-04-25T00:52:19;2.10;;;0.93;;
43552;SDS011;29153;42.696;23.218;2023-04-25T00:54:47;1.82;;;0.50;;
43552;SDS011;29153;42.696;23.218;2023-04-25T00:57:14;1.05;;;0.42;;
43552;SDS011;29153;42.696;23.218;2023-04-25T00:59:43;1.90;;;1.07;;
43552;SDS011;29153;42.696;23.218;2023-04-25T01:02:15;4.58;;;1.00;;
43552;SDS011;29153;42.696;23.218;2023-04-25T01:04:42;2.20;;;0.88;;
43552;SDS011;29153;42.696;23.218;2023-04-25T01:07:11;1.70;;;0.40;;
43552;SDS011;29153;42.696;23.218;2023-04-25T01:09:38;2.20;;;0.80;;
43552;SDS011;29153;42.696;23.218;2023-04-25T01:14:34;2.20;;;0.75;;
43552;SDS011;29153;42.696;23.218;2023-04-25T01:17:01;2.85;;;0.42;;
43552;SDS011;29153;42.696;23.218;2023-04-25T01:19:29;2.27;;;0.60;;
43552;SDS011;29153;42.696;23.218;2023-04-25T01:21:57;1.95;;;1.02;;
43552;SDS011;29153;42.696;23.218;2023-04-25T01:24:24;2.87;;;1.10;;
43552;SDS011;29153;42.696;23.218;2023-04-25T01:26:52;3.02;;;1.70;;
43552;SDS011;29153;42.696;23.218;2023-04-25T01:29:22;3.50;;;1.67;;
43552;SDS011;29153;42.696;23.218;2023-04-25T01:31:51;4.53;;;2.12;;
43552;SDS011;29153;42.696;23.218;2023-04-25T01:34:20;6.12;;;2.40;;
43552;SDS011;29153;42.696;23.218;2023-04-25T01:36:49;6.75;;;3.80;;
43552;SDS011;29153;42.696;23.218;2023-04-25T01:39:17;7.30;;;3.52;;
43552;SDS011;29153;42.696;23.218;2023-04-25T01:41:48;7.37;;;4.30;;
43552;SDS011;29153;42.696;23.218;2023-04-25T01:44:16;7.12;;;3.77;;
43552;SDS011;29153;42.696;23.218;2023-04-25T01:46:43;5.78;;;3.22;;
43552;SDS011;29153;42.696;23.218;2023-04-25T01:49:11;8.03;;;3.45;;
43552;SDS011;29153;42.696;23.218;2023-04-25T01:51:38;5.17;;;3.17;;
43552;SDS011;29153;42.696;23.218;2023-04-25T01:54:07;6.85;;;3.00;;
43552;SDS011;29153;42.696;23.218;2023-04-25T01:56:36;6.55;;;3.05;;
43552;SDS011;29153;42.696;23.218;2023-04-25T01:59:05;6.05;;;3.30;;
43552;SDS011;29153;42.696;23.218;2023-04-25T02:01:32;6.35;;;2.85;;
43552;SDS011;29153;42.696;23.218;2023-04-25T02:04:00;4.90;;;2.50;;
43552;SDS011;29153;42.696;23.218;2023-04-25T02:06:27;6.85;;;3.15;;
43552;SDS011;29153;42.696;23.218;2023-04-25T02:08:56;5.50;;;3.17;;
43552;SDS011;29153;42.696;23.218;2023-04-25T02:11:23;6.05;;;2.60;;
43552;SDS011;29153;42.696;23.218;2023-04-25T02:13:51;4.75;;;2.47;;
43552;SDS011;29153;42.696;23.218;2023-04-25T02:16:19;7.28;;;3.52;;
43552;SDS011;29153;42.696;23.218;2023-04-25T02:18:46;7.92;;;3.77;;
43552;SDS011;29153;42.696;23.218;2023-04-25T02:21:14;10.60;;;4.30;;
43552;SDS011;29153;42.696;23.218;2023-04-25T02:23:41;7.55;;;3.83;;
43552;SDS011;29153;42.696;23.218;2023-04-25T02:26:11;7.53;;;4.17;;
43552;SDS011;29153;42.696;23.218;2023-04-25T02:28:39;6.85;;;4.28;;
43552;SDS011;29153;42.696;23.218;2023-04-25T02:31:06;8.40;;;3.62;;
43552;SDS011;29153;42.696;23.218;2023-04-25T02:33:34;8.83;;;4.47;;
43552;SDS011;29153;42.696;23.218;2023-04-25T02:36:01;8.05;;;5.08;;
43552;SDS011;29153;42.696;23.218;2023-04-25T02:38:29;8.55;;;4.50;;
43552;SDS011;29153;42.696;23.218;2023-04-25T02:40:56;8.25;;;4.83;;
43552;SDS011;29153;42.696;23.218;2023-04-25T02:43:24;7.87;;;4.40;;
43552;SDS011;29153;42.696;23.218;2023-04-25T02:45:51;10.63;;;4.85;;
43552;SDS011;29153;42.696;23.218;2023-04-25T02:48:19;8.85;;;4.95;;
43552;SDS011;29153;42.696;23.218;2023-04-25T02:50:46;8.08;;;4.70;;
43552;SDS011;29153;42.696;23.218;2023-04-25T02:53:14;9.55;;;5.15;;
43552;SDS011;29153;42.696;23.218;2023-04-25T02:55:41;8.60;;;5.10;;
43552;SDS011;29153;42.696;23.218;2023-04-25T02:58:09;8.43;;;4.65;;
43552;SDS011;29153;42.696;23.218;2023-04-25T03:00:36;7.75;;;5.03;;
43552;SDS011;29153;42.696;23.218;2023-04-25T03:03:04;12.68;;;7.28;;
43552;SDS011;29153;42.696;23.218;2023-04-25T03:05:31;11.90;;;7.03;;
43552;SDS011;29153;42.696;23.218;2023-04-25T03:07:59;12.65;;;7.17;;
43552;SDS011;29153;42.696;23.218;2023-04-25T03:10:26;13.48;;;7.65;;
43552;SDS011;29153;42.696;23.218;2023-04-25T03:12:54;12.43;;;7.30;;
43552;SDS011;29153;42.696;23.218;2023-04-25T03:15:21;14.78;;;8.35;;
43552;SDS011;29153;42.696;23.218;2023-04-25T03:17:49;14.95;;;9.15;;
43552;SDS011;29153;42.696;23.218;2023-04-25T03:20:16;14.90;;;9.33;;
43552;SDS011;29153;42.696;23.218;2023-04-25T03:22:44;14.75;;;8.63;;
43552;SDS011;29153;42.696;23.218;2023-04-25T03:25:11;12.07;;;7.67;;
43552;SDS011;29153;42.696;23.218;2023-04-25T03:27:39;11.75;;;7.50;;
43552;SDS011;29153;42.696;23.218;2023-04-25T03:30:06;11.15;;;7.28;;
43552;SDS011;29153;42.696;23.218;2023-04-25T03:32:34;10.03;;;7.50;;
43552;SDS011;29153;42.696;23.218;2023-04-25T03:35:02;10.58;;;6.67;;
43552;SDS011;29153;42.696;23.218;2023-04-25T03:39:57;8.38;;;6.17;;
43552;SDS011;29153;42.696;23.218;2023-04-25T03:42:25;10.53;;;5.80;;
43552;SDS011;29153;42.696;23.218;2023-04-25T03:44:52;8.88;;;5.70;;
43552;SDS011;29153;42.696;23.218;2023-04-25T03:47:20;11.48;;;6.33;;
43552;SDS011;29153;42.696;23.218;2023-04-25T03:49:47;8.48;;;6.15;;
43552;SDS011;29153;42.696;23.218;2023-04-25T03:52:16;8.90;;;6.10;;
43552;SDS011;29153;42.696;23.218;2023-04-25T03:54:45;11.63;;;6.60;;
43552;SDS011;29153;42.696;23.218;2023-04-25T03:57:12;10.28;;;6.22;;
43552;SDS011;29153;42.696;23.218;2023-04-25T03:59:40;12.25;;;7.10;;
43552;SDS011;29153;42.696;23.218;2023-04-25T04:02:07;12.18;;;6.85;;
43552;SDS011;29153;42.696;23.218;2023-04-25T04:04:35;12.20;;;6.05;;
43552;SDS011;29153;42.696;23.218;2023-04-25T04:07:03;11.60;;;7.28;;
43552;SDS011;29153;42.696;23.218;2023-04-25T04:09:31;13.50;;;6.35;;
43552;SDS011;29153;42.696;23.218;2023-04-25T04:11:58;9.58;;;4.83;;
43552;SDS011;29153;42.696;23.218;2023-04-25T04:14:27;8.95;;;5.70;;
43552;SDS011;29153;42.696;23.218;2023-04-25T04:16:55;8.23;;;5.03;;
43552;SDS011;29153;42.696;23.218;2023-04-25T04:19:23;7.85;;;5.15;;
43552;SDS011;29153;42.696;23.218;2023-04-25T04:21:50;9.10;;;4.85;;
43552;SDS011;29153;42.696;23.218;2023-04-25T04:24:18;7.25;;;4.83;;
43552;SDS011;29153;42.696;23.218;2023-04-25T04:26:45;9.33;;;4.12;;
43552;SDS011;29153;42.696;23.218;2023-04-25T04:29:13;12.28;;;5.03;;
43552;SDS011;29153;42.696;23.218;2023-04-25T04:31:42;6.87;;;4.30;;
43552;SDS011;29153;42.696;23.218;2023-04-25T04:34:09;6.78;;;3.98;;
43552;SDS011;29153;42.696;23.218;2023-04-25T04:36:38;10.08;;;5.08;;
43552;SDS011;29153;42.696;23.218;2023-04-25T04:39:06;6.33;;;3.60;;
43552;SDS011;29153;42.696;23.218;2023-04-25T04:41:35;8.55;;;4.40;;
43552;SDS011;29153;42.696;23.218;2023-04-25T04:44:02;7.33;;;3.95;;
43552;SDS011;29153;42.696;23.218;2023-04-25T04:46:30;10.58;;;3.77;;
43552;SDS011;29153;42.696;23.218;2023-04-25T04:48:57;13.65;;;7.92;;
43552;SDS011;29153;42.696;23.218;2023-04-25T04:51:25;16.27;;;9.03;;
43552;SDS011;29153;42.696;23.218;2023-04-25T04:53:52;14.10;;;8.18;;
43552;SDS011;29153;42.696;23.218;2023-04-25T04:56:21;17.50;;;9.00;;
43552;SDS011;29153;42.696;23.218;2023-04-25T04:58:50;13.53;;;8.45;;
43552;SDS011;29153;42.696;23.218;2023-04-25T05:01:18;16.95;;;9.20;;
43552;SDS011;29153;42.696;23.218;2023-04-25T05:03:45;17.25;;;9.20;;
43552;SDS011;29153;42.696;23.218;2023-04-25T05:06:13;13.80;;;7.67;;
43552;SDS011;29153;42.696;23.218;2023-04-25T05:08:40;18.73;;;11.85;;
43552;SDS011;29153;42.696;23.218;2023-04-25T05:11:08;20.20;;;9.90;;
43552;SDS011;29153;42.696;23.218;2023-04-25T05:13:35;19.12;;;10.28;;
43552;SDS011;29153;42.696;23.218;2023-04-25T05:16:03;18.85;;;9.43;;
43552;SDS011;29153;42.696;23.218;2023-04-25T05:18:30;15.80;;;9.00;;
43552;SDS011;29153;42.696;23.218;2023-04-25T05:20:58;14.53;;;8.20;;
43552;SDS011;29153;42.696;23.218;2023-04-25T05:23:25;15.80;;;9.03;;
43552;SDS011;29153;42.696;23.218;2023-04-25T05:25:54;16.50;;;9.80;;
43552;SDS011;29153;42.696;23.218;2023-04-25T05:28:22;10.28;;;5.55;;
43552;SDS011;29153;42.696;23.218;2023-04-25T05:30:50;16.55;;;7.60;;
43552;SDS011;29153;42.696;23.218;2023-04-25T05:33:17;11.50;;;7.20;;
43552;SDS011;29153;42.696;23.218;2023-04-25T05:35:46;15.98;;;8.03;;
43552;SDS011;29153;42.696;23.218;2023-04-25T05:38:13;13.62;;;8.50;;
43552;SDS011;29153;42.696;23.218;2023-04-25T05:40:42;13.83;;;7.65;;
43552;SDS011;29153;42.696;23.218;2023-04-25T05:45:37;10.95;;;6.97;;
43552;SDS011;29153;42.696;23.218;2023-04-25T05:48:05;12.13;;;6.83;;
43552;SDS011;29153;42.696;23.218;2023-04-25T05:50:32;8.33;;;4.25;;
43552;SDS011;29153;42.696;23.218;2023-04-25T05:53:00;11.25;;;3.60;;
43552;SDS011;29153;42.696;23.218;2023-04-25T05:55:28;9.70;;;3.65;;
43552;SDS011;29153;42.696;23.218;2023-04-25T05:57:55;11.20;;;4.00;;
43552;SDS011;29153;42.696;23.218;2023-04-25T06:00:23;12.15;;;4.30;;
43552;SDS011;29153;42.696;23.218;2023-04-25T06:02:50;10.70;;;4.62;;
43552;SDS011;29153;42.696;23.218;2023-04-25T06:05:18;5.78;;;3.77;;
43552;SDS011;29153;42.696;23.218;2023-04-25T06:07:46;7.08;;;4.20;;
43552;SDS011;29153;42.696;23.218;2023-04-25T06:10:14;10.60;;;5.95;;
43552;SDS011;29153;42.696;23.218;2023-04-25T06:12:41;13.05;;;6.50;;
43552;SDS011;29153;42.696;23.218;2023-04-25T06:15:09;9.65;;;6.50;;
43552;SDS011;29153;42.696;23.218;2023-04-25T06:17:37;10.68;;;6.50;;
43552;SDS011;29153;42.696;23.218;2023-04-25T06:20:05;9.20;;;5.50;;
43552;SDS011;29153;42.696;23.218;2023-04-25T06:22:34;10.20;;;5.78;;
43552;SDS011;29153;42.696;23.218;2023-04-25T06:25:01;10.45;;;6.53;;
43552;SDS011;29153;42.696;23.218;2023-04-25T06:27:29;14.78;;;8.88;;
43552;SDS011;29153;42.696;23.218;2023-04-25T06:29:57;17.00;;;8.03;;
43552;SDS011;29153;42.696;23.218;2023-04-25T06:32:24;13.15;;;8.60;;
43552;SDS011;29153;42.696;23.218;2023-04-25T06:34:54;13.28;;;7.33;;
43552;SDS011;29153;42.696;23.218;2023-04-25T06:37:21;9.15;;;5.92;;
43552;SDS011;29153;42.696;23.218;2023-04-25T06:39:49;11.48;;;6.72;;
43552;SDS011;29153;42.696;23.218;2023-04-25T06:42:16;10.48;;;7.03;;
43552;SDS011;29153;42.696;23.218;2023-04-25T06:44:44;6.97;;;4.00;;
43552;SDS011;29153;42.696;23.218;2023-04-25T06:47:12;4.85;;;3.00;;
43552;SDS011;29153;42.696;23.218;2023-04-25T06:49:39;4.60;;;3.35;;
43552;SDS011;29153;42.696;23.218;2023-04-25T06:52:07;5.33;;;3.45;;
43552;SDS011;29153;42.696;23.218;2023-04-25T06:54:36;8.70;;;5.62;;
43552;SDS011;29153;42.696;23.218;2023-04-25T06:57:03;5.28;;;3.50;;
43552;SDS011;29153;42.696;23.218;2023-04-25T06:59:31;6.58;;;3.85;;
43552;SDS011;29153;42.696;23.218;2023-04-25T07:01:58;4.87;;;3.80;;
43552;SDS011;29153;42.696;23.218;2023-04-25T07:04:26;7.70;;;4.90;;
43552;SDS011;29153;42.696;23.218;2023-04-25T07:06:53;10.08;;;5.80;;
43552;SDS011;29153;42.696;23.218;2023-04-25T07:09:21;6.15;;;3.87;;
43552;SDS011;29153;42.696;23.218;2023-04-25T07:11:48;9.93;;;4.58;;
43552;SDS011;29153;42.696;23.218;2023-04-25T07:14:16;6.92;;;4.30;;
43552;SDS011;29153;42.696;23.218;2023-04-25T07:16:43;12.98;;;6.00;;
43552;SDS011;29153;42.696;23.218;2023-04-25T07:19:11;9.88;;;6.25;;
43552;SDS011;29153;42.696;23.218;2023-04-25T07:21:38;14.45;;;6.83;;
43552;SDS011;29153;42.696;23.218;2023-04-25T07:24:06;12.75;;;8.00;;
43552;SDS011;29153;42.696;23.218;2023-04-25T07:26:33;12.95;;;6.20;;
43552;SDS011;29153;42.696;23.218;2023-04-25T07:29:01;8.48;;;4.70;;
43552;SDS011;29153;42.696;23.218;2023-04-25T07:31:28;9.03;;;5.85;;
43552;SDS011;29153;42.696;23.218;2023-04-25T07:33:56;11.75;;;7.25;;
43552;SDS011;29153;42.696;23.218;2023-04-25T07:36:23;7.92;;;4.80;;
43552;SDS011;29153;42.696;23.218;2023-04-25T07:38:52;7.10;;;3.50;;
43552;SDS011;29153;42.696;23.218;2023-04-25T07:41:20;5.90;;;3.60;;
43552;SDS011;29153;42.696;23.218;2023-04-25T07:43:48;6.87;;;3.92;;
43552;SDS011;29153;42.696;23.218;2023-04-25T07:46:15;8.10;;;4.03;;
43552;SDS011;29153;42.696;23.218;2023-04-25T07:48:43;6.15;;;3.55;;
43552;SDS011;29153;42.696;23.218;2023-04-25T07:51:11;5.08;;;2.58;;
43552;SDS011;29153;42.696;23.218;2023-04-25T07:53:38;4.72;;;3.02;;
43552;SDS011;29153;42.696;23.218;2023-04-25T07:56:06;5.72;;;3.27;;
43552;SDS011;29153;42.696;23.218;2023-04-25T07:58:34;4.55;;;2.25;;
43552;SDS011;29153;42.696;23.218;2023-04-25T08:01:02;4.83;;;2.10;;
43552;SDS011;29153;42.696;23.218;2023-04-25T08:03:29;4.45;;;3.35;;
43552;SDS011;29153;42.696;23.218;2023-04-25T08:05:57;4.87;;;3.17;;
43552;SDS011;29153;42.696;23.218;2023-04-25T08:08:24;4.42;;;3.25;;
43552;SDS011;29153;42.696;23.218;2023-04-25T08:10:52;7.30;;;3.85;;
43552;SDS011;29153;42.696;23.218;2023-04-25T08:13:19;5.53;;;2.83;;
43552;SDS011;29153;42.696;23.218;2023-04-25T08:15:47;3.67;;;1.92;;
43552;SDS011;29153;42.696;23.218;2023-04-25T08:18:14;3.20;;;1.62;;
43552;SDS011;29153;42.696;23.218;2023-04-25T08:20:42;3.15;;;2.08;;
43552;SDS011;29153;42.696;23.218;2023-04-25T08:23:09;4.58;;;1.45;;
43552;SDS011;29153;42.696;23.218;2023-04-25T08:25:37;3.58;;;1.42;;
43552;SDS011;29153;42.696;23.218;2023-04-25T08:28:05;3.65;;;1.50;;
43552;SDS011;29153;42.696;23.218;2023-04-25T08:32:59;2.70;;;1.37;;
43552;SDS011;29153;42.696;23.218;2023-04-25T08:35:27;2.72;;;1.00;;
43552;SDS011;29153;42.696;23.218;2023-04-25T08:37:54;3.72;;;1.30;;
43552;SDS011;29153;42.696;23.218;2023-04-25T08:40:22;2.02;;;1.15;;
43552;SDS011;29153;42.696;23.218;2023-04-25T08:42:53;4.08;;;0.80;;
43552;SDS011;29153;42.696;23.218;2023-04-25T08:45:21;1.90;;;0.70;;
43552;SDS011;29153;42.696;23.218;2023-04-25T08:47:51;2.35;;;0.80;;
43552;SDS011;29153;42.696;23.218;2023-04-25T08:50:19;4.28;;;0.98;;
43552;SDS011;29153;42.696;23.218;2023-04-25T08:52:49;1.52;;;0.70;;
43552;SDS011;29153;42.696;23.218;2023-04-25T08:55:18;4.80;;;1.10;;
43552;SDS011;29153;42.696;23.218;2023-04-25T08:57:47;3.80;;;1.02;;
43552;SDS011;29153;42.696;23.218;2023-04-25T09:00:16;2.08;;;0.75;;
43552;SDS011;29153;42.696;23.218;2023-04-25T09:02:44;2.95;;;1.00;;
43552;SDS011;29153;42.696;23.218;2023-04-25T09:05:13;2.95;;;1.10;;
43552;SDS011;29153;42.696;23.218;2023-04-25T09:07:41;1.50;;;0.65;;
43552;SDS011;29153;42.696;23.218;2023-04-25T09:10:08;3.47;;;0.85;;
43552;SDS011;29153;42.696;23.218;2023-04-25T09:12:36;3.50;;;1.22;;
43552;SDS011;29153;42.696;23.218;2023-04-25T09:15:10;1.15;;;0.70;;
43552;SDS011;29153;42.696;23.218;2023-04-25T09:17:34;1.77;;;0.85;;
43552;SDS011;29153;42.696;23.218;2023-04-25T09:20:12;1.72;;;0.95;;
43552;SDS011;29153;42.696;23.218;2023-04-25T09:22:36;2.50;;;0.60;;
43552;SDS011;29153;42.696;23.218;2023-04-25T09:25:08;1.87;;;0.53;;
43552;SDS011;29153;42.696;23.218;2023-04-25T09:27:49;1.25;;;0.95;;
43552;SDS011;29153;42.696;23.218;2023-04-25T09:30:17;2.10;;;0.90;;
43552;SDS011;29153;42.696;23.218;2023-04-25T09:32:46;1.70;;;0.62;;
43552;SDS011;29153;42.696;23.218;2023-04-25T09:35:23;2.40;;;0.60;;
43552;SDS011;29153;42.696;23.218;2023-04-25T09:37:52;2.00;;;1.00;;
43552;SDS011;29153;42.696;23.218;2023-04-25T09:40:22;1.05;;;0.50;;
43552;SDS011;29153;42.696;23.218;2023-04-25T09:42:49;2.12;;;0.40;;
43552;SDS011;29153;42.696;23.218;2023-04-25T09:45:17;2.22;;;0.45;;
43552;SDS011;29153;42.696;23.218;2023-04-25T09:47:44;1.25;;;0.40;;
43552;SDS011;29153;42.696;23.218;2023-04-25T09:50:15;0.98;;;0.40;;
43552;SDS011;29153;42.696;23.218;2023-04-25T09:52:45;1.77;;;0.70;;
43552;SDS011;29153;42.696;23.218;2023-04-25T09:55:12;2.20;;;0.80;;
43552;SDS011;29153;42.696;23.218;2023-04-25T09:57:40;3.70;;;1.70;;
43552;SDS011;29153;42.696;23.218;2023-04-25T10:00:08;2.40;;;0.53;;
43552;SDS011;29153;42.696;23.218;2023-04-25T10:02:38;2.33;;;1.40;;
43552;SDS011;29153;42.696;23.218;2023-04-25T10:05:09;3.72;;;1.00;;
43552;SDS011;29153;42.696;23.218;2023-04-25T10:07:38;1.87;;;0.47;;
43552;SDS011;29153;42.696;23.218;2023-04-25T10:10:07;1.52;;;0.50;;
43552;SDS011;29153;42.696;23.218;2023-04-25T10:12:35;1.67;;;0.60;;
43552;SDS011;29153;42.696;23.218;2023-04-25T10:15:05;10.60;;;3.55;;
43552;SDS011;29153;42.696;23.218;2023-04-25T10:17:35;2.60;;;0.50;;
43552;SDS011;29153;42.696;23.218;2023-04-25T10:20:03;2.30;;;0.68;;
43552;SDS011;29153;42.696;23.218;2023-04-25T10:22:35;2.52;;;0.90;;
43552;SDS011;29153;42.696;23.218;2023-04-25T10:25:07;4.40;;;0.40;;
43552;SDS011;29153;42.696;23.218;2023-04-25T10:27:36;1.32;;;0.40;;
43552;SDS011;29153;42.696;23.218;2023-04-25T10:32:38;4.40;;;0.55;;
43552;SDS011;29153;42.696;23.218;2023-04-25T10:35:12;7.00;;;0.72;;
43552;SDS011;29153;42.696;23.218;2023-04-25T10:37:57;1.50;;;0.57;;
43552;SDS011;29153;42.696;23.218;2023-04-25T10:40:32;1.75;;;0.35;;
43552;SDS011;29153;42.696;23.218;2023-04-25T10:45:34;1.00;;;0.30;;
43552;SDS011;29153;42.696;23.218;2023-04-25T10:48:02;4.03;;;1.32;;
43552;SDS011;29153;42.696;23.218;2023-04-25T10:50:37;1.37;;;0.50;;
43552;SDS011;29153;42.696;23.218;2023-04-25T10:53:24;0.68;;;0.35;;
43552;SDS011;29153;42.696;23.218;2023-04-25T10:55:49;0.60;;;0.20;;
43552;SDS011;29153;42.696;23.218;2023-04-25T10:58:20;1.45;;;1.20;;
43552;SDS011;29153;42.696;23.218;2023-04-25T11:00:48;1.27;;;0.20;;
43552;SDS011;29153;42.696;23.218;2023-04-25T11:03:16;0.90;;;0.10;;
43552;SDS011;29153;42.696;23.218;2023-04-25T11:05:45;0.98;;;0.30;;
43552;SDS011;29153;42.696;23.218;2023-04-25T11:08:15;0.50;;;0.10;;
43552;SDS011;29153;42.696;23.218;2023-04-25T11:10:45;0.93;;;0.20;;
43552;SDS011;29153;42.696;23.218;2023-04-25T11:13:14;0.88;;;0.37;;
43552;SDS011;29153;42.696;23.218;2023-04-25T11:15:42;2.58;;;0.50;;
43552;SDS011;29153;42.696;23.218;2023-04-25T11:18:10;0.80;;;0.20;;
43552;SDS011;29153;42.696;23.218;2023-04-25T11:20:39;0.82;;;0.30;;
43552;SDS011;29153;42.696;23.218;2023-04-25T11:23:10;0.50;;;0.10;;
43552;SDS011;29153;42.696;23.218;2023-04-25T11:25:37;1.25;;;0.40;;
43552;SDS011;29153;42.696;23.218;2023-04-25T11:28:05;3.65;;;0.47;;
43552;SDS011;29153;42.696;23.218;2023-04-25T11:30:32;3.60;;;0.50;;
43552;SDS011;29153;42.696;23.218;2023-04-25T11:33:00;1.57;;;0.35;;
43552;SDS011;29153;42.696;23.218;2023-04-25T11:35:28;2.72;;;0.60;;
43552;SDS011;29153;42.696;23.218;2023-04-25T11:40:23;3.77;;;1.30;;
43552;SDS011;29153;42.696;23.218;2023-04-25T11:42:51;3.80;;;1.52;;
43552;SDS011;29153;42.696;23.218;2023-04-25T11:45:19;2.45;;;0.70;;
43552;SDS011;29153;42.696;23.218;2023-04-25T11:47:46;1.45;;;0.72;;
43552;SDS011;29153;42.696;23.218;2023-04-25T11:50:15;2.87;;;0.65;;
43552;SDS011;29153;42.696;23.218;2023-04-25T11:52:43;2.10;;;1.15;;
43552;SDS011;29153;42.696;23.218;2023-04-25T11:55:19;2.40;;;0.72;;
43552;SDS011;29153;42.696;23.218;2023-04-25T11:57:50;1.05;;;0.35;;
43552;SDS011;29153;42.696;23.218;2023-04-25T12:00:19;1.05;;;0.20;;
43552;SDS011;29153;42.696;23.218;2023-04-25T12:02:51;0.90;;;0.35;;
43552;SDS011;29153;42.696;23.218;2023-04-25T12:05:23;1.47;;;0.50;;
43552;SDS011;29153;42.696;23.218;2023-04-25T12:07:51;2.70;;;0.40;;
43552;SDS011;29153;42.696;23.218;2023-04-25T12:10:20;2.02;;;0.50;;
43552;SDS011;29153;42.696;23.218;2023-04-25T12:12:48;1.32;;;0.40;;
43552;SDS011;29153;42.696;23.218;2023-04-25T12:15:16;1.27;;;0.57;;
43552;SDS011;29153;42.696;23.218;2023-04-25T12:17:45;1.20;;;0.40;;
43552;SDS011;29153;42.696;23.218;2023-04-25T12:20:14;1.30;;;0.55;;
43552;SDS011;29153;42.696;23.218;2023-04-25T12:22:45;1.22;;;0.33;;
43552;SDS011;29153;42.696;23.218;2023-04-25T12:25:33;2.47;;;0.80;;
43552;SDS011;29153;42.696;23.218;2023-04-25T12:27:44;2.15;;;0.65;;
43552;SDS011;29153;42.696;23.218;2023-04-25T12:30:12;2.62;;;0.62;;
43552;SDS011;29153;42.696;23.218;2023-04-25T12:32:39;1.35;;;0.40;;
43552;SDS011;29153;42.696;23.218;2023-04-25T12:35:07;3.17;;;0.30;;
43552;SDS011;29153;42.696;23.218;2023-04-25T12:40:57;2.92;;;0.40;;
43552;SDS011;29153;42.696;23.218;2023-04-25T12:43:25;1.60;;;0.42;;
43552;SDS011;29153;42.696;23.218;2023-04-25T12:45:53;4.12;;;0.68;;
43552;SDS011;29153;42.696;23.218;2023-04-25T12:48:22;2.10;;;0.42;;
43552;SDS011;29153;42.696;23.218;2023-04-25T12:50:50;4.22;;;1.00;;
43552;SDS011;29153;42.696;23.218;2023-04-25T12:53:23;4.42;;;0.85;;
43552;SDS011;29153;42.696;23.218;2023-04-25T12:55:50;3.05;;;1.20;;
43552;SDS011;29153;42.696;23.218;2023-04-25T12:58:18;2.67;;;0.62;;
43552;SDS011;29153;42.696;23.218;2023-04-25T13:00:46;4.42;;;1.27;;
43552;SDS011;29153;42.696;23.218;2023-04-25T13:03:14;16.30;;;5.30;;
43552;SDS011;29153;42.696;23.218;2023-04-25T13:05:41;7.78;;;2.60;;
43552;SDS011;29153;42.696;23.218;2023-04-25T13:08:09;15.30;;;7.00;;
43552;SDS011;29153;42.696;23.218;2023-04-25T13:10:36;9.15;;;5.17;;
43552;SDS011;29153;42.696;23.218;2023-04-25T13:13:04;7.17;;;3.77;;
43552;SDS011;29153;42.696;23.218;2023-04-25T13:15:32;6.60;;;2.75;;
43552;SDS011;29153;42.696;23.218;2023-04-25T13:17:59;4.30;;;2.45;;
43552;SDS011;29153;42.696;23.218;2023-04-25T13:20:27;4.80;;;2.22;;
43552;SDS011;29153;42.696;23.218;2023-04-25T13:22:54;7.08;;;2.10;;
43552;SDS011;29153;42.696;23.218;2023-04-25T13:25:22;6.17;;;3.37;;
43552;SDS011;29153;42.696;23.218;2023-04-25T13:27:50;5.67;;;2.40;;
43552;SDS011;29153;42.696;23.218;2023-04-25T13:30:17;5.10;;;2.72;;
43552;SDS011;29153;42.696;23.218;2023-04-25T13:32:45;3.08;;;2.00;;
43552;SDS011;29153;42.696;23.218;2023-04-25T13:35:13;3.77;;;1.70;;
43552;SDS011;29153;42.696;23.218;2023-04-25T13:37:40;7.75;;;3.33;;
43552;SDS011;29153;42.696;23.218;2023-04-25T13:40:09;12.88;;;5.15;;
43552;SDS011;29153;42.696;23.218;2023-04-25T13:42:37;11.03;;;4.62;;
43552;SDS011;29153;42.696;23.218;2023-04-25T13:45:06;9.28;;;4.37;;
43552;SDS011;29153;42.696;23.218;2023-04-25T13:47:34;7.53;;;4.78;;
43552;SDS011;29153;42.696;23.218;2023-04-25T13:50:01;6.35;;;3.08;;
43552;SDS011;29153;42.696;23.218;2023-04-25T13:52:32;7.75;;;3.80;;
43552;SDS011;29153;42.696;23.218;2023-04-25T13:55:00;3.15;;;1.10;;
43552;SDS011;29153;42.696;23.218;2023-04-25T13:57:32;3.62;;;0.98;;
43552;SDS011;29153;42.696;23.218;2023-04-25T14:00:00;2.83;;;1.10;;
43552;SDS011;29153;42.696;23.218;2023-04-25T14:02:37;1.82;;;0.78;;
43552;SDS011;29153;42.696;23.218;2023-04-25T14:05:05;2.70;;;0.90;;
43552;SDS011;29153;42.696;23.218;2023-04-25T14:07:34;2.98;;;0.82;;
43552;SDS011;29153;42.696;23.218;2023-04-25T14:10:02;1.98;;;0.80;;
43552;SDS011;29153;42.696;23.218;2023-04-25T14:12:31;1.32;;;0.72;;
43552;SDS011;29153;42.696;23.218;2023-04-25T14:14:59;0.95;;;0.47;;
43552;SDS011;29153;42.696;23.218;2023-04-25T14:17:26;2.25;;;0.90;;
43552;SDS011;29153;42.696;23.218;2023-04-25T14:19:54;2.17;;;0.70;;
43552;SDS011;29153;42.696;23.218;2023-04-25T14:22:21;1.60;;;0.70;;
43552;SDS011;29153;42.696;23.218;2023-04-25T14:24:49;2.67;;;0.68;;
43552;SDS011;29153;42.696;23.218;2023-04-25T14:32:11;2.52;;;0.90;;
43552;SDS011;29153;42.696;23.218;2023-04-25T14:34:39;5.85;;;2.25;;
43552;SDS011;29153;42.696;23.218;2023-04-25T14:37:07;4.33;;;1.30;;
43552;SDS011;29153;42.696;23.218;2023-04-25T14:39:34;4.92;;;2.72;;
43552;SDS011;29153;42.696;23.218;2023-04-25T14:42:03;5.75;;;2.98;;
43552;SDS011;29153;42.696;23.218;2023-04-25T14:44:30;4.28;;;2.00;;
43552;SDS011;29153;42.696;23.218;2023-04-25T14:46:58;5.30;;;1.98;;
43552;SDS011;29153;42.696;23.218;2023-04-25T14:49:25;6.65;;;3.52;;
43552;SDS011;29153;42.696;23.218;2023-04-25T14:51:53;9.00;;;4.00;;
43552;SDS011;29153;42.696;23.218;2023-04-25T14:54:21;7.83;;;2.83;;
43552;SDS011;29153;42.696;23.218;2023-04-25T14:56:48;8.25;;;3.08;;
43552;SDS011;29153;42.696;23.218;2023-04-25T15:01:43;8.30;;;2.85;;
43552;SDS011;29153;42.696;23.218;2023-04-25T15:04:11;5.30;;;2.15;;
43552;SDS011;29153;42.696;23.218;2023-04-25T15:06:39;3.47;;;1.07;;